TFM - Tactical Decision Aid
ID: Runway Winds: CIG/VIS Threshold:

KSAN - San Diego Intl Arpt, CA, US

Updated at: 1814 UTC 19 Aug 2019
Latest TAF at: 1720 UTC 19 Aug 2019

TAF Board

Time1751Z 19/19Z 19/20Z 19/21Z 19/22Z 19/23Z 20/00Z 20/01Z 20/02Z 20/03Z 20/04Z 20/05Z 20/06Z 20/07Z>>
Type OBS PRVL PRVL PRVL PRVL PRVL PRVL PRVL PRVL PRVL PRVL PRVL PRVL PRVL
VIS 10 >6 >6 >6 >6 >6 >6 >6 >6 >6 >6 >6 >6 >6
CIG -- -- -- -- -- -- -- -- -- -- -- 12 12 12
Cover FEW SCT SKC SKC SKC SKC SKC SKC FEW FEW FEW OVC OVC OVC
FltCat VFR VFR VFR VFR VFR VFR VFR VFR VFR VFR VFR MVFR MVFR MVFR
WX -- -- -- -- -- -- -- -- -- -- -- -- -- --
WDir 270 VRB 280 280 280 280 280 280 VRB VRB VRB VRB VRB VRB
WSpd 8 4 9 9 9 9 9 9 4 4 4 4 4 4
WGst -- -- -- -- -- -- -- -- -- -- -- -- -- --

TDA Impact Legend

  None Marginal Slight Moderate High
Visibility (sm) >5 3≤X≤5 2≤X<3 1≤X<2 <1
Ceiling (100 ft) >30 10≤X≤30 8≤X<10 4≤X<8 <4
Wind Speed (kt) <15 15≤X<25 25≤X<30 ≥30
Wind Gust (kt) <15 15≤X<25 25≤X<35 ≥35
Weather No Wx Reported VCTS -TS,-FZRA TS,FZRA +TS,+FZRA
TAF
KSAN 191720Z 1918/2024 VRB04KT P6SM SCT017
  FM192000 28009KT P6SM SKC
  FM200200 VRB04KT P6SM FEW012
  FM200500 VRB04KT P6SM OVC012
  FM201700 VRB04KT P6SM SCT014
  FM202000 29009KT P6SM SKC


METAR
KSAN 191751Z 27008KT 10SM FEW020 23/16 A2998 RMK AO2 SLP150 T02330161 10233 20200 50002
KSAN 191706Z VRB04KT 10SM SCT020 23/17 A2999 RMK AO2 T02330167
KSAN 191651Z VRB03KT 10SM BKN019 22/16 A2999 RMK AO2 SLP153 T02170161
KSAN 191551Z 36005KT 10SM BKN019 22/16 A2998 RMK AO2 SLP150 T02170161
KSAN 191451Z 00000KT 10SM OVC018 21/16 A2997 RMK AO2 SLP148 T02060161 53005

Radar Display
Forecast Discussion